sensor_id;sensor_type;location;lat;lon;timestamp;temperature;humidity
29341;DHT22;16337;59.536;13.468;2022-07-23T00:00:04;12.90;99.90
29341;DHT22;16337;59.536;13.468;2022-07-23T00:02:30;12.80;99.90
29341;DHT22;16337;59.536;13.468;2022-07-23T00:04:56;12.80;99.90
29341;DHT22;16337;59.536;13.468;2022-07-23T00:07:21;12.80;99.90
29341;DHT22;16337;59.536;13.468;2022-07-23T00:09:47;12.90;99.90
29341;DHT22;16337;59.536;13.468;2022-07-23T00:12:13;12.80;99.90
29341;DHT22;16337;59.536;13.468;2022-07-23T00:14:38;12.80;99.90
29341;DHT22;16337;59.536;13.468;2022-07-23T00:17:04;12.80;99.90
29341;DHT22;16337;59.536;13.468;2022-07-23T00:19:30;12.80;99.90
29341;DHT22;16337;59.536;13.468;2022-07-23T00:21:56;12.80;99.90
29341;DHT22;16337;59.536;13.468;2022-07-23T00:24:21;12.80;99.90
29341;DHT22;16337;59.536;13.468;2022-07-23T00:26:50;12.80;99.90
29341;DHT22;16337;59.536;13.468;2022-07-23T00:29:15;12.80;99.90
29341;DHT22;16337;59.536;13.468;2022-07-23T00:31:41;12.80;99.90
29341;DHT22;16337;59.536;13.468;2022-07-23T00:34:07;12.80;99.90
29341;DHT22;16337;59.536;13.468;2022-07-23T00:36:32;12.70;99.90
29341;DHT22;16337;59.536;13.468;2022-07-23T00:38:58;12.70;99.90
29341;DHT22;16337;59.536;13.468;2022-07-23T00:41:24;12.70;99.90
29341;DHT22;16337;59.536;13.468;2022-07-23T00:43:50;12.70;99.90
29341;DHT22;16337;59.536;13.468;2022-07-23T00:46:24;12.70;99.90
29341;DHT22;16337;59.536;13.468;2022-07-23T00:48:50;12.80;99.90
29341;DHT22;16337;59.536;13.468;2022-07-23T00:51:16;12.70;99.90
29341;DHT22;16337;59.536;13.468;2022-07-23T00:53:43;12.70;99.90
29341;DHT22;16337;59.536;13.468;2022-07-23T00:56:10;12.70;99.90
29341;DHT22;16337;59.536;13.468;2022-07-23T00:58:39;12.70;99.90
29341;DHT22;16337;59.536;13.468;2022-07-23T01:01:08;12.70;99.90
29341;DHT22;16337;59.536;13.468;2022-07-23T01:03:34;12.70;99.90
29341;DHT22;16337;59.536;13.468;2022-07-23T01:06:00;12.60;99.90
29341;DHT22;16337;59.536;13.468;2022-07-23T01:08:29;12.60;99.90
29341;DHT22;16337;59.536;13.468;2022-07-23T01:10:55;12.60;99.90
29341;DHT22;16337;59.536;13.468;2022-07-23T01:13:21;12.50;99.90
29341;DHT22;16337;59.536;13.468;2022-07-23T01:15:47;12.50;99.90
29341;DHT22;16337;59.536;13.468;2022-07-23T01:18:12;12.40;99.90
29341;DHT22;16337;59.536;13.468;2022-07-23T01:20:39;12.40;99.90
29341;DHT22;16337;59.536;13.468;2022-07-23T01:23:07;12.40;99.90
29341;DHT22;16337;59.536;13.468;2022-07-23T01:25:34;12.40;99.90
29341;DHT22;16337;59.536;13.468;2022-07-23T01:28:02;12.40;99.90
29341;DHT22;16337;59.536;13.468;2022-07-23T01:30:28;12.40;99.90
29341;DHT22;16337;59.536;13.468;2022-07-23T01:32:54;12.40;99.90
29341;DHT22;16337;59.536;13.468;2022-07-23T01:35:23;12.40;99.90
29341;DHT22;16337;59.536;13.468;2022-07-23T01:37:48;12.30;99.90
29341;DHT22;16337;59.536;13.468;2022-07-23T01:40:14;12.30;99.90
29341;DHT22;16337;59.536;13.468;2022-07-23T01:42:43;12.30;99.90
29341;DHT22;16337;59.536;13.468;2022-07-23T01:45:09;12.30;99.90
29341;DHT22;16337;59.536;13.468;2022-07-23T01:47:34;12.30;99.90
29341;DHT22;16337;59.536;13.468;2022-07-23T01:50:00;12.20;99.90
29341;DHT22;16337;59.536;13.468;2022-07-23T01:52:26;12.20;99.90
29341;DHT22;16337;59.536;13.468;2022-07-23T01:54:52;12.30;99.90
29341;DHT22;16337;59.536;13.468;2022-07-23T01:57:20;12.30;99.90
29341;DHT22;16337;59.536;13.468;2022-07-23T01:59:46;12.30;99.90
29341;DHT22;16337;59.536;13.468;2022-07-23T02:02:12;12.30;99.90
29341;DHT22;16337;59.536;13.468;2022-07-23T02:04:37;12.30;99.90
29341;DHT22;16337;59.536;13.468;2022-07-23T02:07:06;12.30;99.90
29341;DHT22;16337;59.536;13.468;2022-07-23T02:09:32;12.30;99.90
29341;DHT22;16337;59.536;13.468;2022-07-23T02:11:58;12.30;99.90
29341;DHT22;16337;59.536;13.468;2022-07-23T02:14:25;12.40;99.90
29341;DHT22;16337;59.536;13.468;2022-07-23T02:16:50;12.40;99.90
29341;DHT22;16337;59.536;13.468;2022-07-23T02:19:16;12.40;99.90
29341;DHT22;16337;59.536;13.468;2022-07-23T02:21:42;12.40;99.90
29341;DHT22;16337;59.536;13.468;2022-07-23T02:24:07;12.30;99.90
29341;DHT22;16337;59.536;13.468;2022-07-23T02:26:33;12.30;99.90
29341;DHT22;16337;59.536;13.468;2022-07-23T02:29:03;12.20;99.90
29341;DHT22;16337;59.536;13.468;2022-07-23T02:31:29;12.20;99.90
29341;DHT22;16337;59.536;13.468;2022-07-23T02:33:55;12.20;99.90
29341;DHT22;16337;59.536;13.468;2022-07-23T02:36:21;12.20;99.90
29341;DHT22;16337;59.536;13.468;2022-07-23T02:38:47;12.20;99.90
29341;DHT22;16337;59.536;13.468;2022-07-23T02:41:13;12.20;99.90
29341;DHT22;16337;59.536;13.468;2022-07-23T02:43:39;12.30;99.90
29341;DHT22;16337;59.536;13.468;2022-07-23T02:46:05;12.30;99.90
29341;DHT22;16337;59.536;13.468;2022-07-23T02:48:33;12.30;99.90
29341;DHT22;16337;59.536;13.468;2022-07-23T02:50:59;12.30;99.90
29341;DHT22;16337;59.536;13.468;2022-07-23T02:53:25;12.30;99.90
29341;DHT22;16337;59.536;13.468;2022-07-23T02:55:53;12.30;99.90
29341;DHT22;16337;59.536;13.468;2022-07-23T02:58:18;12.40;99.90
29341;DHT22;16337;59.536;13.468;2022-07-23T03:00:44;12.30;99.90
29341;DHT22;16337;59.536;13.468;2022-07-23T03:03:10;12.30;99.90
29341;DHT22;16337;59.536;13.468;2022-07-23T03:05:36;12.30;99.90
29341;DHT22;16337;59.536;13.468;2022-07-23T03:08:02;12.40;99.90
29341;DHT22;16337;59.536;13.468;2022-07-23T03:10:27;12.40;99.90
29341;DHT22;16337;59.536;13.468;2022-07-23T03:12:53;12.40;99.90
29341;DHT22;16337;59.536;13.468;2022-07-23T03:15:19;12.40;99.90
29341;DHT22;16337;59.536;13.468;2022-07-23T03:17:44;12.40;99.90
29341;DHT22;16337;59.536;13.468;2022-07-23T03:20:10;12.40;99.90
29341;DHT22;16337;59.536;13.468;2022-07-23T03:22:36;12.40;99.90
29341;DHT22;16337;59.536;13.468;2022-07-23T03:25:01;12.40;99.90
29341;DHT22;16337;59.536;13.468;2022-07-23T03:27:30;12.40;99.90
29341;DHT22;16337;59.536;13.468;2022-07-23T03:29:58;12.40;99.90
29341;DHT22;16337;59.536;13.468;2022-07-23T03:32:24;12.40;99.90
29341;DHT22;16337;59.536;13.468;2022-07-23T03:34:50;12.40;99.90
29341;DHT22;16337;59.536;13.468;2022-07-23T03:37:17;12.40;99.90
29341;DHT22;16337;59.536;13.468;2022-07-23T03:39:43;12.40;99.90
29341;DHT22;16337;59.536;13.468;2022-07-23T03:42:09;12.40;99.90
29341;DHT22;16337;59.536;13.468;2022-07-23T03:44:36;12.40;99.90
29341;DHT22;16337;59.536;13.468;2022-07-23T03:47:04;12.50;99.90
29341;DHT22;16337;59.536;13.468;2022-07-23T03:49:30;12.50;99.90
29341;DHT22;16337;59.536;13.468;2022-07-23T03:51:57;12.50;99.90
29341;DHT22;16337;59.536;13.468;2022-07-23T03:54:23;12.50;99.90
29341;DHT22;16337;59.536;13.468;2022-07-23T03:56:48;12.50;99.90
29341;DHT22;16337;59.536;13.468;2022-07-23T03:59:14;12.50;99.90
29341;DHT22;16337;59.536;13.468;2022-07-23T04:01:40;12.50;99.90
29341;DHT22;16337;59.536;13.468;2022-07-23T04:04:06;12.60;99.90
29341;DHT22;16337;59.536;13.468;2022-07-23T04:06:36;12.60;99.90
29341;DHT22;16337;59.536;13.468;2022-07-23T04:09:03;12.60;99.90
29341;DHT22;16337;59.536;13.468;2022-07-23T04:11:29;12.70;99.90
29341;DHT22;16337;59.536;13.468;2022-07-23T04:13:54;12.70;99.90
29341;DHT22;16337;59.536;13.468;2022-07-23T04:16:22;12.70;99.90
29341;DHT22;16337;59.536;13.468;2022-07-23T04:18:51;12.80;99.90
29341;DHT22;16337;59.536;13.468;2022-07-23T04:21:17;12.80;99.90
29341;DHT22;16337;59.536;13.468;2022-07-23T04:23:42;12.90;99.90
29341;DHT22;16337;59.536;13.468;2022-07-23T04:26:08;12.90;99.90
29341;DHT22;16337;59.536;13.468;2022-07-23T04:28:37;12.90;99.90
29341;DHT22;16337;59.536;13.468;2022-07-23T04:31:02;12.90;99.90
29341;DHT22;16337;59.536;13.468;2022-07-23T04:33:28;13.00;99.90
29341;DHT22;16337;59.536;13.468;2022-07-23T04:35:54;13.10;99.90
29341;DHT22;16337;59.536;13.468;2022-07-23T04:38:20;13.20;99.90
29341;DHT22;16337;59.536;13.468;2022-07-23T04:40:45;13.20;99.90
29341;DHT22;16337;59.536;13.468;2022-07-23T04:43:11;13.20;99.90
29341;DHT22;16337;59.536;13.468;2022-07-23T04:45:37;13.30;99.90
29341;DHT22;16337;59.536;13.468;2022-07-23T04:48:03;13.40;99.90
29341;DHT22;16337;59.536;13.468;2022-07-23T04:50:29;13.50;99.90
29341;DHT22;16337;59.536;13.468;2022-07-23T04:52:54;13.60;99.90
29341;DHT22;16337;59.536;13.468;2022-07-23T04:55:20;13.70;99.90
29341;DHT22;16337;59.536;13.468;2022-07-23T04:57:46;13.70;99.90
29341;DHT22;16337;59.536;13.468;2022-07-23T05:00:12;13.80;99.90
29341;DHT22;16337;59.536;13.468;2022-07-23T05:02:38;13.80;99.90
29341;DHT22;16337;59.536;13.468;2022-07-23T05:05:04;13.90;99.90
29341;DHT22;16337;59.536;13.468;2022-07-23T05:07:30;14.00;99.90
29341;DHT22;16337;59.536;13.468;2022-07-23T05:09:55;14.20;99.90
29341;DHT22;16337;59.536;13.468;2022-07-23T05:12:21;14.40;99.90
29341;DHT22;16337;59.536;13.468;2022-07-23T05:14:47;14.50;99.90
29341;DHT22;16337;59.536;13.468;2022-07-23T05:17:12;14.50;99.90
29341;DHT22;16337;59.536;13.468;2022-07-23T05:19:38;14.40;99.90
29341;DHT22;16337;59.536;13.468;2022-07-23T05:22:04;14.30;99.90
29341;DHT22;16337;59.536;13.468;2022-07-23T05:24:29;14.40;99.90
29341;DHT22;16337;59.536;13.468;2022-07-23T05:26:58;14.40;99.90
29341;DHT22;16337;59.536;13.468;2022-07-23T05:29:24;14.40;99.90
29341;DHT22;16337;59.536;13.468;2022-07-23T05:31:49;14.40;99.90
29341;DHT22;16337;59.536;13.468;2022-07-23T05:34:15;14.30;99.90
29341;DHT22;16337;59.536;13.468;2022-07-23T05:36:41;14.20;99.90
29341;DHT22;16337;59.536;13.468;2022-07-23T05:39:06;14.20;99.90
29341;DHT22;16337;59.536;13.468;2022-07-23T05:41:32;14.20;99.90
29341;DHT22;16337;59.536;13.468;2022-07-23T05:43:58;14.30;99.90
29341;DHT22;16337;59.536;13.468;2022-07-23T05:46:23;14.30;99.90
29341;DHT22;16337;59.536;13.468;2022-07-23T05:48:49;14.70;99.90
29341;DHT22;16337;59.536;13.468;2022-07-23T05:51:22;15.00;99.90
29341;DHT22;16337;59.536;13.468;2022-07-23T05:53:48;15.20;99.90
29341;DHT22;16337;59.536;13.468;2022-07-23T05:56:15;15.00;99.90
29341;DHT22;16337;59.536;13.468;2022-07-23T05:58:41;15.10;99.90
29341;DHT22;16337;59.536;13.468;2022-07-23T06:01:06;15.40;99.90
29341;DHT22;16337;59.536;13.468;2022-07-23T06:03:32;15.90;99.90
29341;DHT22;16337;59.536;13.468;2022-07-23T06:05:58;16.10;99.90
29341;DHT22;16337;59.536;13.468;2022-07-23T06:08:23;16.30;99.90
29341;DHT22;16337;59.536;13.468;2022-07-23T06:10:49;16.50;99.90
29341;DHT22;16337;59.536;13.468;2022-07-23T06:13:17;16.40;99.90
29341;DHT22;16337;59.536;13.468;2022-07-23T06:15:43;16.10;99.90
29341;DHT22;16337;59.536;13.468;2022-07-23T06:18:09;16.10;99.90
29341;DHT22;16337;59.536;13.468;2022-07-23T06:20:37;16.00;99.90
29341;DHT22;16337;59.536;13.468;2022-07-23T06:23:04;16.00;99.90
29341;DHT22;16337;59.536;13.468;2022-07-23T06:25:32;15.90;99.90
29341;DHT22;16337;59.536;13.468;2022-07-23T06:27:58;16.00;99.90
29341;DHT22;16337;59.536;13.468;2022-07-23T06:30:23;16.10;99.90
29341;DHT22;16337;59.536;13.468;2022-07-23T06:32:50;16.40;99.90
29341;DHT22;16337;59.536;13.468;2022-07-23T06:35:16;16.70;99.90
29341;DHT22;16337;59.536;13.468;2022-07-23T06:37:42;16.80;99.90
29341;DHT22;16337;59.536;13.468;2022-07-23T06:40:08;17.00;99.90
29341;DHT22;16337;59.536;13.468;2022-07-23T06:42:34;17.00;99.90
29341;DHT22;16337;59.536;13.468;2022-07-23T06:45:03;16.90;99.90
29341;DHT22;16337;59.536;13.468;2022-07-23T06:47:29;16.70;99.90
29341;DHT22;16337;59.536;13.468;2022-07-23T06:49:55;16.90;99.90
29341;DHT22;16337;59.536;13.468;2022-07-23T06:52:20;17.10;99.90
29341;DHT22;16337;59.536;13.468;2022-07-23T06:54:46;17.10;99.90
29341;DHT22;16337;59.536;13.468;2022-07-23T06:57:12;17.10;99.90
29341;DHT22;16337;59.536;13.468;2022-07-23T06:59:37;17.30;99.90
29341;DHT22;16337;59.536;13.468;2022-07-23T07:02:06;17.20;99.90
29341;DHT22;16337;59.536;13.468;2022-07-23T07:04:33;17.20;99.90
29341;DHT22;16337;59.536;13.468;2022-07-23T07:06:58;17.30;99.90
29341;DHT22;16337;59.536;13.468;2022-07-23T07:09:24;17.20;99.90
29341;DHT22;16337;59.536;13.468;2022-07-23T07:11:50;17.00;99.90
29341;DHT22;16337;59.536;13.468;2022-07-23T07:14:17;17.10;99.90
29341;DHT22;16337;59.536;13.468;2022-07-23T07:16:42;16.90;99.90
29341;DHT22;16337;59.536;13.468;2022-07-23T07:19:08;16.80;99.90
29341;DHT22;16337;59.536;13.468;2022-07-23T07:21:34;16.80;99.90
29341;DHT22;16337;59.536;13.468;2022-07-23T07:23:59;16.80;99.90
29341;DHT22;16337;59.536;13.468;2022-07-23T07:26:25;16.90;99.90
29341;DHT22;16337;59.536;13.468;2022-07-23T07:28:51;16.90;99.90
29341;DHT22;16337;59.536;13.468;2022-07-23T07:31:16;17.00;99.90
29341;DHT22;16337;59.536;13.468;2022-07-23T07:33:42;17.30;99.90
29341;DHT22;16337;59.536;13.468;2022-07-23T07:36:08;17.30;99.90
29341;DHT22;16337;59.536;13.468;2022-07-23T07:38:34;17.40;99.90
29341;DHT22;16337;59.536;13.468;2022-07-23T07:41:00;17.90;99.90
29341;DHT22;16337;59.536;13.468;2022-07-23T07:43:25;18.00;99.90
29341;DHT22;16337;59.536;13.468;2022-07-23T07:45:52;17.70;99.90
29341;DHT22;16337;59.536;13.468;2022-07-23T07:48:18;17.50;99.90
29341;DHT22;16337;59.536;13.468;2022-07-23T07:50:43;17.60;99.90
29341;DHT22;16337;59.536;13.468;2022-07-23T07:53:09;17.80;99.90
29341;DHT22;16337;59.536;13.468;2022-07-23T07:55:38;18.00;99.90
29341;DHT22;16337;59.536;13.468;2022-07-23T07:58:03;18.10;99.90
29341;DHT22;16337;59.536;13.468;2022-07-23T08:00:30;18.40;99.90
29341;DHT22;16337;59.536;13.468;2022-07-23T08:02:56;18.40;99.90
29341;DHT22;16337;59.536;13.468;2022-07-23T08:05:24;18.30;99.90
29341;DHT22;16337;59.536;13.468;2022-07-23T08:07:50;18.40;99.90
29341;DHT22;16337;59.536;13.468;2022-07-23T08:10:17;18.70;99.90
29341;DHT22;16337;59.536;13.468;2022-07-23T08:12:48;19.10;99.90
29341;DHT22;16337;59.536;13.468;2022-07-23T08:15:16;19.00;99.90
29341;DHT22;16337;59.536;13.468;2022-07-23T08:17:42;18.90;99.90
29341;DHT22;16337;59.536;13.468;2022-07-23T08:20:11;18.90;99.90
29341;DHT22;16337;59.536;13.468;2022-07-23T08:25:14;19.70;99.90
29341;DHT22;16337;59.536;13.468;2022-07-23T08:27:40;20.10;99.90
29341;DHT22;16337;59.536;13.468;2022-07-23T08:30:06;20.20;99.90
29341;DHT22;16337;59.536;13.468;2022-07-23T08:32:32;20.50;99.90
29341;DHT22;16337;59.536;13.468;2022-07-23T08:34:58;21.10;99.90
29341;DHT22;16337;59.536;13.468;2022-07-23T08:37:23;21.60;99.90
29341;DHT22;16337;59.536;13.468;2022-07-23T08:39:49;22.10;99.90
29341;DHT22;16337;59.536;13.468;2022-07-23T08:42:15;21.80;99.90
29341;DHT22;16337;59.536;13.468;2022-07-23T08:44:44;21.60;99.90
29341;DHT22;16337;59.536;13.468;2022-07-23T08:47:14;20.70;99.90
29341;DHT22;16337;59.536;13.468;2022-07-23T08:49:41;20.30;99.90
29341;DHT22;16337;59.536;13.468;2022-07-23T08:52:07;20.20;99.90
29341;DHT22;16337;59.536;13.468;2022-07-23T08:54:34;20.70;99.90
29341;DHT22;16337;59.536;13.468;2022-07-23T08:57:00;20.90;99.90
29341;DHT22;16337;59.536;13.468;2022-07-23T08:59:25;21.20;99.90
29341;DHT22;16337;59.536;13.468;2022-07-23T09:01:52;20.90;99.90
29341;DHT22;16337;59.536;13.468;2022-07-23T09:04:18;20.30;99.90
29341;DHT22;16337;59.536;13.468;2022-07-23T09:06:43;20.20;99.90
29341;DHT22;16337;59.536;13.468;2022-07-23T09:09:17;20.40;99.90
29341;DHT22;16337;59.536;13.468;2022-07-23T09:11:47;20.40;99.90
29341;DHT22;16337;59.536;13.468;2022-07-23T09:14:13;20.50;99.90
29341;DHT22;16337;59.536;13.468;2022-07-23T09:16:39;20.80;99.90
29341;DHT22;16337;59.536;13.468;2022-07-23T09:19:06;20.70;99.90
29341;DHT22;16337;59.536;13.468;2022-07-23T09:21:33;20.80;99.90
29341;DHT22;16337;59.536;13.468;2022-07-23T09:24:10;21.20;99.90
29341;DHT22;16337;59.536;13.468;2022-07-23T09:26:44;21.40;99.90
29341;DHT22;16337;59.536;13.468;2022-07-23T09:29:25;21.00;99.90
29341;DHT22;16337;59.536;13.468;2022-07-23T09:31:58;20.80;99.90
29341;DHT22;16337;59.536;13.468;2022-07-23T09:34:29;20.90;99.90
29341;DHT22;16337;59.536;13.468;2022-07-23T09:37:07;20.60;99.90
29341;DHT22;16337;59.536;13.468;2022-07-23T09:39:34;21.10;99.90
29341;DHT22;16337;59.536;13.468;2022-07-23T09:42:25;21.20;99.90
29341;DHT22;16337;59.536;13.468;2022-07-23T09:44:56;21.20;99.90
29341;DHT22;16337;59.536;13.468;2022-07-23T09:47:25;21.50;99.90
29341;DHT22;16337;59.536;13.468;2022-07-23T09:50:08;21.10;99.90
29341;DHT22;16337;59.536;13.468;2022-07-23T09:52:46;20.80;99.90
29341;DHT22;16337;59.536;13.468;2022-07-23T09:55:16;20.90;99.90
29341;DHT22;16337;59.536;13.468;2022-07-23T09:57:43;20.90;99.90
29341;DHT22;16337;59.536;13.468;2022-07-23T10:00:11;20.80;99.90
29341;DHT22;16337;59.536;13.468;2022-07-23T10:02:38;21.10;99.90
29341;DHT22;16337;59.536;13.468;2022-07-23T10:05:05;21.60;99.90
29341;DHT22;16337;59.536;13.468;2022-07-23T10:07:33;21.60;99.90
29341;DHT22;16337;59.536;13.468;2022-07-23T10:10:01;21.50;99.90
29341;DHT22;16337;59.536;13.468;2022-07-23T10:12:30;21.10;99.90
29341;DHT22;16337;59.536;13.468;2022-07-23T10:15:23;20.70;99.90
29341;DHT22;16337;59.536;13.468;2022-07-23T10:17:50;20.20;99.90
29341;DHT22;16337;59.536;13.468;2022-07-23T10:20:16;20.20;99.90
29341;DHT22;16337;59.536;13.468;2022-07-23T10:25:41;20.80;99.90
29341;DHT22;16337;59.536;13.468;2022-07-23T10:31:20;21.20;99.90
29341;DHT22;16337;59.536;13.468;2022-07-23T10:36:50;22.70;99.90
29341;DHT22;16337;59.536;13.468;2022-07-23T10:39:30;23.10;99.90
29341;DHT22;16337;59.536;13.468;2022-07-23T10:44:44;23.30;99.90
29341;DHT22;16337;59.536;13.468;2022-07-23T10:47:10;23.50;99.90
29341;DHT22;16337;59.536;13.468;2022-07-23T10:49:39;23.80;99.90
29341;DHT22;16337;59.536;13.468;2022-07-23T10:54:52;23.30;99.90
29341;DHT22;16337;59.536;13.468;2022-07-23T10:57:26;23.40;99.90
29341;DHT22;16337;59.536;13.468;2022-07-23T11:02:31;23.40;99.90
29341;DHT22;16337;59.536;13.468;2022-07-23T11:05:09;23.50;99.90
29341;DHT22;16337;59.536;13.468;2022-07-23T11:07:35;23.80;99.90
29341;DHT22;16337;59.536;13.468;2022-07-23T11:10:02;23.90;99.90
29341;DHT22;16337;59.536;13.468;2022-07-23T11:15:08;23.40;99.90
29341;DHT22;16337;59.536;13.468;2022-07-23T11:20:24;22.50;99.90
29341;DHT22;16337;59.536;13.468;2022-07-23T11:22:58;22.30;99.90
29341;DHT22;16337;59.536;13.468;2022-07-23T11:27:51;22.40;99.90
29341;DHT22;16337;59.536;13.468;2022-07-23T11:32:53;22.90;99.90
29341;DHT22;16337;59.536;13.468;2022-07-23T11:37:46;22.90;99.90
29341;DHT22;16337;59.536;13.468;2022-07-23T11:40:15;22.80;99.90
29341;DHT22;16337;59.536;13.468;2022-07-23T11:43:03;22.90;99.90
29341;DHT22;16337;59.536;13.468;2022-07-23T11:45:35;22.90;99.90
29341;DHT22;16337;59.536;13.468;2022-07-23T11:48:05;23.10;99.90
29341;DHT22;16337;59.536;13.468;2022-07-23T11:50:31;23.30;99.90
29341;DHT22;16337;59.536;13.468;2022-07-23T11:52:57;23.40;99.90
29341;DHT22;16337;59.536;13.468;2022-07-23T11:55:23;23.30;99.90
29341;DHT22;16337;59.536;13.468;2022-07-23T11:57:51;23.30;99.90
29341;DHT22;16337;59.536;13.468;2022-07-23T12:00:20;23.50;99.90
29341;DHT22;16337;59.536;13.468;2022-07-23T12:02:54;23.50;99.90
29341;DHT22;16337;59.536;13.468;2022-07-23T12:05:23;23.00;99.90
29341;DHT22;16337;59.536;13.468;2022-07-23T12:07:51;22.80;99.90
29341;DHT22;16337;59.536;13.468;2022-07-23T12:12:46;23.60;99.90
29341;DHT22;16337;59.536;13.468;2022-07-23T12:15:15;24.00;99.90
29341;DHT22;16337;59.536;13.468;2022-07-23T12:17:43;24.40;99.90
29341;DHT22;16337;59.536;13.468;2022-07-23T12:20:13;24.70;99.90
29341;DHT22;16337;59.536;13.468;2022-07-23T12:22:44;24.30;99.90
29341;DHT22;16337;59.536;13.468;2022-07-23T12:25:12;24.60;99.90
29341;DHT22;16337;59.536;13.468;2022-07-23T12:27:39;24.90;99.90
29341;DHT22;16337;59.536;13.468;2022-07-23T12:30:21;25.20;99.90
29341;DHT22;16337;59.536;13.468;2022-07-23T12:32:50;25.10;99.90
29341;DHT22;16337;59.536;13.468;2022-07-23T12:35:17;24.80;99.90
29341;DHT22;16337;59.536;13.468;2022-07-23T12:37:44;25.10;99.90
29341;DHT22;16337;59.536;13.468;2022-07-23T12:40:28;25.60;99.90
29341;DHT22;16337;59.536;13.468;2022-07-23T12:45:20;25.80;99.90
29341;DHT22;16337;59.536;13.468;2022-07-23T12:48:02;25.90;99.90
29341;DHT22;16337;59.536;13.468;2022-07-23T12:51:01;26.10;99.90
29341;DHT22;16337;59.536;13.468;2022-07-23T12:53:32;26.20;99.90
29341;DHT22;16337;59.536;13.468;2022-07-23T12:58:25;25.00;99.90
29341;DHT22;16337;59.536;13.468;2022-07-23T13:01:01;24.40;99.90
29341;DHT22;16337;59.536;13.468;2022-07-23T13:05:57;24.50;99.90
29341;DHT22;16337;59.536;13.468;2022-07-23T13:08:24;24.70;99.90
29341;DHT22;16337;59.536;13.468;2022-07-23T13:10:50;25.00;99.90
29341;DHT22;16337;59.536;13.468;2022-07-23T13:13:19;25.00;99.90
29341;DHT22;16337;59.536;13.468;2022-07-23T13:15:46;25.20;99.90
29341;DHT22;16337;59.536;13.468;2022-07-23T13:18:11;25.30;99.90
29341;DHT22;16337;59.536;13.468;2022-07-23T13:20:37;25.50;99.90
29341;DHT22;16337;59.536;13.468;2022-07-23T13:23:05;25.80;99.90
29341;DHT22;16337;59.536;13.468;2022-07-23T13:25:31;25.80;99.90
29341;DHT22;16337;59.536;13.468;2022-07-23T13:27:57;25.80;99.90
29341;DHT22;16337;59.536;13.468;2022-07-23T13:30:22;25.90;99.90
29341;DHT22;16337;59.536;13.468;2022-07-23T13:32:48;25.80;99.90
29341;DHT22;16337;59.536;13.468;2022-07-23T13:35:14;25.60;99.90
29341;DHT22;16337;59.536;13.468;2022-07-23T13:37:40;25.80;99.90
29341;DHT22;16337;59.536;13.468;2022-07-23T13:40:06;26.10;99.90
29341;DHT22;16337;59.536;13.468;2022-07-23T13:42:32;26.20;99.90
29341;DHT22;16337;59.536;13.468;2022-07-23T13:44:58;26.10;99.90
29341;DHT22;16337;59.536;13.468;2022-07-23T13:47:23;26.20;99.90
29341;DHT22;16337;59.536;13.468;2022-07-23T13:49:49;26.30;99.90
29341;DHT22;16337;59.536;13.468;2022-07-23T13:52:15;25.90;99.90
29341;DHT22;16337;59.536;13.468;2022-07-23T13:54:40;25.50;99.90
29341;DHT22;16337;59.536;13.468;2022-07-23T13:57:06;25.60;99.90
29341;DHT22;16337;59.536;13.468;2022-07-23T13:59:35;25.60;99.90
29341;DHT22;16337;59.536;13.468;2022-07-23T14:02:04;25.30;99.90
29341;DHT22;16337;59.536;13.468;2022-07-23T14:04:30;24.90;99.90
29341;DHT22;16337;59.536;13.468;2022-07-23T14:06:56;24.80;99.90
29341;DHT22;16337;59.536;13.468;2022-07-23T14:09:22;24.70;99.90
29341;DHT22;16337;59.536;13.468;2022-07-23T14:11:48;24.80;99.90
29341;DHT22;16337;59.536;13.468;2022-07-23T14:14:17;24.80;99.90
29341;DHT22;16337;59.536;13.468;2022-07-23T14:16:43;24.90;99.90
29341;DHT22;16337;59.536;13.468;2022-07-23T14:19:09;25.00;99.90
29341;DHT22;16337;59.536;13.468;2022-07-23T14:21:36;24.60;99.90
29341;DHT22;16337;59.536;13.468;2022-07-23T14:24:02;24.60;99.90
29341;DHT22;16337;59.536;13.468;2022-07-23T14:26:27;24.70;99.90
29341;DHT22;16337;59.536;13.468;2022-07-23T14:28:53;24.70;99.90
29341;DHT22;16337;59.536;13.468;2022-07-23T14:31:19;24.70;99.90
29341;DHT22;16337;59.536;13.468;2022-07-23T14:33:45;24.70;99.90
29341;DHT22;16337;59.536;13.468;2022-07-23T14:36:10;24.50;99.90
29341;DHT22;16337;59.536;13.468;2022-07-23T14:38:36;24.20;99.90
29341;DHT22;16337;59.536;13.468;2022-07-23T14:41:02;24.10;99.90
29341;DHT22;16337;59.536;13.468;2022-07-23T14:43:32;24.30;99.90
29341;DHT22;16337;59.536;13.468;2022-07-23T14:45:58;24.40;99.90
29341;DHT22;16337;59.536;13.468;2022-07-23T14:48:24;24.60;99.90
29341;DHT22;16337;59.536;13.468;2022-07-23T14:50:49;24.50;99.90
29341;DHT22;16337;59.536;13.468;2022-07-23T14:53:15;24.40;99.90
29341;DHT22;16337;59.536;13.468;2022-07-23T14:55:41;24.30;99.90
29341;DHT22;16337;59.536;13.468;2022-07-23T14:58:07;24.30;99.90
29341;DHT22;16337;59.536;13.468;2022-07-23T15:00:33;24.40;99.90
29341;DHT22;16337;59.536;13.468;2022-07-23T15:02:58;24.20;99.90
29341;DHT22;16337;59.536;13.468;2022-07-23T15:05:24;24.00;99.90
29341;DHT22;16337;59.536;13.468;2022-07-23T15:07:50;23.80;99.90
29341;DHT22;16337;59.536;13.468;2022-07-23T15:10:16;23.80;99.90
29341;DHT22;16337;59.536;13.468;2022-07-23T15:12:42;23.70;99.90
29341;DHT22;16337;59.536;13.468;2022-07-23T15:15:08;23.50;99.90
29341;DHT22;16337;59.536;13.468;2022-07-23T15:17:33;23.60;99.90
29341;DHT22;16337;59.536;13.468;2022-07-23T15:19:59;23.70;99.90
29341;DHT22;16337;59.536;13.468;2022-07-23T15:22:25;23.70;99.90
29341;DHT22;16337;59.536;13.468;2022-07-23T15:24:51;23.70;99.90
29341;DHT22;16337;59.536;13.468;2022-07-23T15:27:17;23.50;99.90
29341;DHT22;16337;59.536;13.468;2022-07-23T15:29:44;23.40;99.90
29341;DHT22;16337;59.536;13.468;2022-07-23T15:32:10;23.50;99.90
29341;DHT22;16337;59.536;13.468;2022-07-23T15:34:37;23.70;99.90
29341;DHT22;16337;59.536;13.468;2022-07-23T15:37:03;23.80;99.90
29341;DHT22;16337;59.536;13.468;2022-07-23T15:39:31;24.00;99.90
29341;DHT22;16337;59.536;13.468;2022-07-23T15:41:59;23.90;99.90
29341;DHT22;16337;59.536;13.468;2022-07-23T15:44:25;24.00;99.90
29341;DHT22;16337;59.536;13.468;2022-07-23T15:46:51;24.00;99.90
29341;DHT22;16337;59.536;13.468;2022-07-23T15:49:17;23.80;99.90
29341;DHT22;16337;59.536;13.468;2022-07-23T15:51:43;23.80;99.90
29341;DHT22;16337;59.536;13.468;2022-07-23T15:54:09;23.70;99.90
29341;DHT22;16337;59.536;13.468;2022-07-23T15:56:34;23.50;99.90